SUMU/MVD METAR and TAF weather

Enter ICAO airport designator
Station Type Date Time Source
SUMU METAR 2020/11/27 02:00 UTC NOAA

SUMU 270200Z 06007KT CAVOK 15/06 Q1019 NOSIG


Station Type Date Time Source
SUMU Decoded METAR 2020/11/27 02:00 UTC NOAA

Carrasco, Uruguay (SUMU) 34-50S 056-00W 32M
Nov 26, 2020 - 09:00 PM EST / 2020.11.27 0200 UTC
Wind: from the ENE (060 degrees) at 8 MPH (7 KT):0
Visibility: greater than 7 mile(s):0
Temperature: 59 F (15 C)
Dew Point: 42 F (6 C)
Relative Humidity: 54%
Pressure (altimeter): 30.09 in. Hg (1019 hPa)
ob: SUMU 270200Z 06007KT CAVOK 15/06 Q1019 NOSIG
cycle: 2

Station Type Date Time Source
SUMU TAF 2020/11/27 00:00 UTC NOAA

TAF SUMU 262330Z 2700/2724 10008KT CAVOK TX27/2718Z TN13/2709Z
BECMG 2702/2706 02010KT

Example: see airport list